15/04/05 - 22h:57mDenunciar

Dassault Mirage 2000

METAR SBPB 160200Z 12006KT 9999 FEW020 SCT100 BKN300 26/25 Q1012=

Comentários (0)

Fotos postadas a mais de 15 dias não podem receber comentários.